Time;durP1;ratioP1;P1;durP2;ratioP2;P2;SDS_P1;SDS_P2;PMS_P1;PMS_P2;Temp;Humidity;BMP_temperature;BMP_pressure;BME280_temperature;BME280_humidity;BME280_pressure;Samples;Min_cycle;Max_cycle;Signal;HPM_P1;HPM_P2
2021/06/12 00:00:32;;;;;;;16.40;12.40;;;21.00;95.90;;;;;;5010873;28;20469;-72
2021/06/12 00:03:01;;;;;;;19.27;13.20;;;21.00;96.10;;;;;;5012212;28;20775;-73
2021/06/12 00:05:28;;;;;;;16.40;12.60;;;20.90;96.10;;;;;;5013595;28;20471;-73
2021/06/12 00:07:55;;;;;;;25.17;14.07;;;20.90;96.10;;;;;;5014499;28;20495;-73
2021/06/12 00:10:26;;;;;;;15.27;11.13;;;20.80;97.00;;;;;;5014771;28;20499;-72
2021/06/12 00:12:53;;;;;;;16.63;12.23;;;20.70;97.50;;;;;;5014048;28;20443;-73
2021/06/12 00:15:22;;;;;;;17.23;12.20;;;20.60;97.70;;;;;;5023588;28;20462;-74
2021/06/12 00:17:50;;;;;;;17.33;11.77;;;20.60;97.90;;;;;;5034408;28;20803;-73
2021/06/12 00:20:20;;;;;;;15.50;11.43;;;20.60;97.90;;;;;;5034531;28;20467;-73
2021/06/12 00:22:47;;;;;;;16.63;11.53;;;20.60;97.90;;;;;;5017284;28;20535;-73
2021/06/12 00:25:16;;;;;;;17.50;11.00;;;20.60;97.90;;;;;;5014499;28;20482;-73
2021/06/12 00:27:43;;;;;;;17.97;11.60;;;20.60;97.90;;;;;;5013476;28;20539;-73
2021/06/12 00:30:11;;;;;;;19.63;13.53;;;20.70;98.10;;;;;;5021701;28;20506;-73
2021/06/12 00:32:38;;;;;;;18.13;12.47;;;20.60;98.30;;;;;;5034695;28;20416;-73
2021/06/12 00:35:08;;;;;;;17.87;12.47;;;20.60;98.20;;;;;;5049400;28;20467;-73
2021/06/12 00:37:36;;;;;;;16.53;13.50;;;20.60;98.40;;;;;;5022081;28;20997;-73
2021/06/12 00:40:05;;;;;;;15.10;11.70;;;20.60;98.70;;;;;;5014185;28;20468;-73
2021/06/12 00:42:32;;;;;;;15.90;12.10;;;20.60;98.60;;;;;;5013661;28;20421;-72
2021/06/12 00:44:59;;;;;;;16.67;12.50;;;20.50;98.70;;;;;;5012474;28;20502;-73
2021/06/12 00:47:26;;;;;;;14.90;11.40;;;20.50;98.90;;;;;;5014487;28;20814;-73
2021/06/12 00:49:55;;;;;;;17.93;13.27;;;20.50;99.00;;;;;;5012681;28;20480;-72
2021/06/12 00:52:22;;;;;;;18.23;12.50;;;20.50;99.10;;;;;;5013631;28;20512;-74
2021/06/12 00:54:49;;;;;;;18.30;11.77;;;20.50;99.10;;;;;;5013940;28;20483;-73
2021/06/12 00:57:16;;;;;;;20.10;13.07;;;20.50;99.30;;;;;;5013991;28;20426;-73
2021/06/12 00:59:43;;;;;;;19.73;13.17;;;20.40;99.70;;;;;;5014045;28;20456;-73
2021/06/12 01:02:11;;;;;;;13.73;12.00;;;20.30;99.60;;;;;;5014713;28;20909;-72
2021/06/12 01:04:38;;;;;;;15.03;11.93;;;20.30;99.90;;;;;;5012652;28;20420;-73
2021/06/12 01:07:04;;;;;;;14.47;11.73;;;20.20;99.90;;;;;;5013872;28;20442;-73
2021/06/12 01:09:31;;;;;;;18.03;12.03;;;20.20;99.90;;;;;;5013756;28;20937;-73
2021/06/12 01:12:23;;;;;;;16.53;12.00;;;20.20;99.90;;;;;;5014119;28;20477;-73
2021/06/12 01:14:56;;;;;;;14.70;11.43;;;20.10;99.90;;;;;;5018901;28;20995;-73
2021/06/12 01:17:30;;;;;;;16.90;10.90;;;20.20;99.90;;;;;;5012636;28;20988;-73
2021/06/12 01:20:06;;;;;;;12.97;10.60;;;20.20;99.90;;;;;;5013594;28;20540;-72
2021/06/12 01:22:46;;;;;;;16.73;11.87;;;20.10;99.90;;;;;;5013024;28;20447;-73
2021/06/12 01:26:00;;;;;;;16.23;11.20;;;20.10;99.90;;;;;;5013548;28;20957;-73
2021/06/12 01:28:50;;;;;;;15.10;11.60;;;20.10;99.90;;;;;;4996473;28;20456;-73
2021/06/12 01:31:20;;;;;;;13.93;10.30;;;20.10;99.90;;;;;;5012177;28;20471;-72
2021/06/12 01:33:49;;;;;;;16.57;9.77;;;20.10;99.90;;;;;;5023565;28;20429;-72
2021/06/12 01:36:16;;;;;;;15.30;10.30;;;20.20;99.90;;;;;;5046743;28;20987;-74
2021/06/12 01:38:48;;;;;;;14.83;9.80;;;20.20;99.90;;;;;;5031897;28;20999;-73
2021/06/12 01:41:19;;;;;;;12.00;10.40;;;20.20;99.90;;;;;;5032986;28;20473;-73
2021/06/12 01:43:47;;;;;;;13.63;10.03;;;20.30;99.90;;;;;;5033568;28;20401;-72
2021/06/12 01:46:16;;;;;;;15.23;9.70;;;20.40;99.90;;;;;;5016115;28;20465;-73
2021/06/12 01:48:45;;;;;;;12.80;8.83;;;20.40;99.90;;;;;;5012222;28;20447;-73
2021/06/12 01:51:13;;;;;;;10.00;9.00;;;20.40;99.90;;;;;;5012684;28;20480;-73
2021/06/12 01:53:42;;;;;;;12.27;9.20;;;20.50;99.90;;;;;;5013656;28;20775;-73
2021/06/12 01:56:12;;;;;;;12.90;8.77;;;20.40;99.90;;;;;;5012896;28;20475;-73
2021/06/12 01:58:42;;;;;;;9.90;6.93;;;20.50;99.90;;;;;;5013208;28;20440;-72
2021/06/12 02:01:13;;;;;;;10.07;8.97;;;20.50;99.90;;;;;;5012491;28;20548;-72
2021/06/12 02:03:41;;;;;;;8.10;5.67;;;20.50;99.90;;;;;;5013364;28;20430;-73
2021/06/12 02:06:13;;;;;;;9.20;7.20;;;20.60;99.90;;;;;;5012384;28;20477;-73
2021/06/12 02:08:41;;;;;;;9.60;6.90;;;20.60;99.90;;;;;;5013059;28;20445;-74
2021/06/12 02:11:09;;;;;;;6.43;5.70;;;20.60;99.90;;;;;;5031649;28;20491;-73
2021/06/12 02:13:37;;;;;;;6.93;5.70;;;20.60;99.90;;;;;;5032887;28;20464;-72
2021/06/12 02:16:04;;;;;;;6.20;5.60;;;20.60;99.90;;;;;;5027093;28;20484;-73
2021/06/12 02:18:32;;;;;;;6.23;5.60;;;20.60;99.90;;;;;;5012602;28;20447;-73
2021/06/12 02:21:00;;;;;;;5.90;5.30;;;20.60;99.90;;;;;;5012835;28;21116;-73
2021/06/12 02:23:29;;;;;;;7.00;5.23;;;20.70;99.90;;;;;;5032448;28;20422;-73
2021/06/12 02:25:56;;;;;;;6.50;4.90;;;20.60;99.90;;;;;;5030140;28;20466;-72
2021/06/12 02:28:29;;;;;;;6.07;4.90;;;20.60;99.90;;;;;;5032025;28;20494;-72
2021/06/12 02:31:20;;;;;;;25.93;6.07;;;20.60;99.90;;;;;;5013334;28;20472;-73
2021/06/12 02:33:49;;;;;;;5.37;4.87;;;20.60;99.90;;;;;;5022354;28;20920;-73
2021/06/12 02:36:16;;;;;;;5.67;4.77;;;20.60;99.90;;;;;;5041703;28;20469;-72
2021/06/12 02:38:43;;;;;;;7.93;5.50;;;20.60;99.90;;;;;;5012078;28;20452;-73
2021/06/12 02:41:10;;;;;;;5.30;4.80;;;20.50;99.90;;;;;;5012156;28;20465;-74
2021/06/12 02:43:39;;;;;;;7.80;4.83;;;20.50;99.90;;;;;;5012443;28;20508;-73
2021/06/12 02:46:19;;;;;;;5.33;4.80;;;20.50;99.90;;;;;;5012082;28;20460;-72
2021/06/12 02:48:51;;;;;;;5.53;4.37;;;20.60;99.90;;;;;;5012398;28;20517;-73
2021/06/12 02:51:19;;;;;;;7.97;4.50;;;20.50;99.90;;;;;;5011917;28;20500;-73
2021/06/12 02:53:48;;;;;;;5.87;4.70;;;20.50;99.90;;;;;;5012755;28;20793;-72
2021/06/12 02:56:16;;;;;;;7.00;5.10;;;20.50;99.90;;;;;;5015906;28;20472;-73
2021/06/12 02:58:44;;;;;;;4.93;4.40;;;20.60;99.90;;;;;;5012597;28;20450;-73
2021/06/12 03:01:13;;;;;;;5.47;4.70;;;20.50;99.90;;;;;;5010207;28;20444;-73
2021/06/12 03:03:41;;;;;;;7.97;4.77;;;20.60;99.90;;;;;;5019714;28;21027;-72
2021/06/12 03:06:08;;;;;;;7.30;4.80;;;20.60;99.90;;;;;;5027002;28;20522;-73
2021/06/12 03:08:43;;;;;;;4.93;4.10;;;20.60;99.90;;;;;;5012004;28;20813;-73
2021/06/12 03:11:12;;;;;;;9.53;4.83;;;20.50;99.90;;;;;;5011610;28;20455;-72
2021/06/12 03:13:44;;;;;;;5.77;5.13;;;20.60;99.90;;;;;;5012088;28;20889;-73
2021/06/12 03:16:14;;;;;;;8.30;4.93;;;20.50;99.90;;;;;;5011637;28;20997;-74
2021/06/12 03:18:44;;;;;;;6.03;5.43;;;20.50;99.90;;;;;;5011876;28;20450;-72
2021/06/12 03:21:11;;;;;;;5.80;5.20;;;20.50;99.90;;;;;;5011738;28;20491;-73
2021/06/12 03:23:39;;;;;;;8.13;5.70;;;20.40;99.90;;;;;;5010769;28;20506;-73
2021/06/12 03:26:09;;;;;;;6.50;5.10;;;20.40;99.90;;;;;;5011620;28;20471;-72
2021/06/12 03:28:37;;;;;;;4.50;3.97;;;20.40;99.90;;;;;;5011489;28;20862;-73
2021/06/12 03:31:06;;;;;;;6.27;5.67;;;20.40;99.90;;;;;;5010591;28;20458;-73
2021/06/12 03:33:33;;;;;;;7.47;5.37;;;20.40;99.90;;;;;;5016360;28;20427;-74
2021/06/12 03:36:03;;;;;;;6.47;4.67;;;20.40;99.90;;;;;;5046643;28;20486;-73
2021/06/12 03:38:34;;;;;;;5.37;4.83;;;20.40;99.90;;;;;;5035155;28;20549;-73
2021/06/12 03:41:04;;;;;;;5.97;4.60;;;20.40;99.90;;;;;;5035218;28;20524;-72
2021/06/12 03:43:34;;;;;;;8.30;5.53;;;20.40;99.90;;;;;;5034286;28;20527;-72
2021/06/12 03:46:02;;;;;;;7.60;5.20;;;20.50;99.90;;;;;;5029219;28;20976;-74
2021/06/12 03:48:30;;;;;;;5.27;4.73;;;20.40;99.90;;;;;;5015290;28;20469;-73
2021/06/12 03:50:58;;;;;;;5.33;4.40;;;20.40;99.90;;;;;;5015037;28;20451;-73
2021/06/12 03:53:43;;;;;;;5.20;4.57;;;20.40;99.90;;;;;;5016035;28;20427;-72
2021/06/12 03:56:14;;;;;;;6.97;4.10;;;20.40;99.90;;;;;;5014504;28;20564;-73
2021/06/12 03:58:43;;;;;;;4.93;3.60;;;20.40;99.90;;;;;;5030586;28;20485;-72
2021/06/12 04:01:18;;;;;;;4.53;4.10;;;20.40;99.90;;;;;;5015053;28;20463;-72
2021/06/12 04:03:46;;;;;;;5.87;4.13;;;20.40;99.90;;;;;;5024277;28;20769;-73
2021/06/12 04:06:15;;;;;;;4.87;4.30;;;20.40;99.90;;;;;;5029310;28;20479;-73
2021/06/12 04:08:42;;;;;;;5.20;4.40;;;20.30;99.90;;;;;;4997690;28;20964;-73
2021/06/12 04:11:09;;;;;;;4.80;3.80;;;20.40;99.90;;;;;;5029970;28;21075;-74
2021/06/12 04:13:36;;;;;;;6.03;3.93;;;20.30;99.90;;;;;;5015375;28;20439;-73
2021/06/12 04:16:04;;;;;;;5.03;3.53;;;20.30;99.90;;;;;;5032131;28;20589;-72
2021/06/12 04:18:31;;;;;;;6.07;3.70;;;20.20;99.90;;;;;;5034764;28;20889;-72
2021/06/12 04:20:58;;;;;;;4.97;3.53;;;20.20;99.90;;;;;;5030110;28;20455;-73
2021/06/12 04:23:24;;;;;;;5.43;4.17;;;20.30;99.90;;;;;;5015282;28;20781;-73
2021/06/12 04:25:51;;;;;;;3.77;3.07;;;20.30;99.90;;;;;;5014597;28;20472;-74
2021/06/12 04:28:22;;;;;;;7.53;4.10;;;20.30;99.90;;;;;;5013523;28;20444;-74
2021/06/12 04:30:51;;;;;;;4.73;3.57;;;20.30;99.90;;;;;;5014467;28;20804;-73
2021/06/12 04:33:19;;;;;;;4.47;3.70;;;20.20;99.90;;;;;;5022445;28;20459;-73
2021/06/12 04:35:46;;;;;;;5.13;3.53;;;20.20;99.90;;;;;;5044209;28;20463;-72
2021/06/12 04:38:13;;;;;;;11.80;4.03;;;20.20;99.90;;;;;;5036651;28;20463;-74
2021/06/12 04:40:40;;;;;;;5.00;3.70;;;20.10;99.90;;;;;;5052827;28;20461;-73
2021/06/12 04:43:09;;;;;;;4.67;4.10;;;20.10;99.90;;;;;;5054251;28;20421;-73
2021/06/12 04:45:36;;;;;;;5.57;3.60;;;20.10;99.90;;;;;;5044580;28;20528;-72
2021/06/12 04:48:04;;;;;;;3.80;3.33;;;20.10;99.90;;;;;;5012038;28;20817;-74
2021/06/12 04:50:35;;;;;;;4.10;3.30;;;20.10;99.90;;;;;;5036256;28;20546;-73
2021/06/12 04:53:06;;;;;;;4.27;3.23;;;20.10;99.90;;;;;;5015016;28;20507;-73
2021/06/12 04:55:34;;;;;;;3.60;2.90;;;20.10;99.90;;;;;;5028875;28;20546;-73
2021/06/12 04:58:01;;;;;;;4.50;4.10;;;20.10;99.90;;;;;;5029345;28;20472;-74
2021/06/12 05:00:31;;;;;;;5.47;3.13;;;20.10;99.90;;;;;;5031363;28;21090;-73
2021/06/12 05:02:58;;;;;;;5.13;2.80;;;20.00;99.90;;;;;;5034256;28;20419;-73
2021/06/12 05:05:26;;;;;;;4.33;3.30;;;20.00;99.90;;;;;;5033291;28;20457;-73
2021/06/12 05:07:52;;;;;;;5.30;2.73;;;20.00;99.90;;;;;;5028132;28;20462;-72
2021/06/12 05:10:25;;;;;;;4.00;2.83;;;20.00;99.90;;;;;;5013467;28;20827;-73
2021/06/12 05:12:52;;;;;;;3.93;2.97;;;20.00;99.90;;;;;;5014304;28;20422;-74
2021/06/12 05:15:24;;;;;;;3.47;2.43;;;20.00;99.90;;;;;;5013739;28;20737;-72
2021/06/12 05:17:51;;;;;;;3.30;2.40;;;20.00;99.90;;;;;;5013694;28;20824;-73
2021/06/12 05:20:21;;;;;;;4.40;2.77;;;20.10;99.90;;;;;;5012078;28;20461;-72
2021/06/12 05:22:51;;;;;;;3.60;2.37;;;20.10;99.90;;;;;;5013919;28;20942;-72
2021/06/12 05:25:19;;;;;;;4.37;2.50;;;20.10;99.90;;;;;;5013480;28;20562;-73
2021/06/12 05:27:46;;;;;;;3.30;2.40;;;20.20;99.90;;;;;;5025220;28;20460;-72
2021/06/12 05:30:14;;;;;;;3.70;2.00;;;20.30;99.90;;;;;;5028152;28;20557;-73
2021/06/12 05:32:41;;;;;;;3.97;2.63;;;20.40;99.90;;;;;;5028340;28;20928;-73
2021/06/12 05:35:09;;;;;;;3.50;3.10;;;20.40;99.90;;;;;;5053143;28;20552;-72
2021/06/12 05:37:37;;;;;;;2.90;2.60;;;20.50;99.90;;;;;;5037461;28;20473;-72
2021/06/12 05:40:06;;;;;;;2.80;2.50;;;20.50;99.90;;;;;;5052839;28;20481;-75
2021/06/12 05:42:33;;;;;;;3.13;2.83;;;20.50;99.90;;;;;;5051960;28;20518;-72
2021/06/12 05:45:00;;;;;;;4.87;3.70;;;20.60;99.90;;;;;;5032564;28;20457;-73
2021/06/12 05:47:27;;;;;;;4.97;3.37;;;20.70;99.90;;;;;;5011805;28;20475;-73
2021/06/12 05:49:56;;;;;;;4.23;3.00;;;20.70;99.90;;;;;;5033111;28;20459;-74
2021/06/12 05:52:23;;;;;;;5.07;3.87;;;20.80;99.90;;;;;;5033002;28;20445;-73
2021/06/12 05:54:50;;;;;;;4.80;3.70;;;20.80;99.90;;;;;;5011489;28;20453;-73
2021/06/12 05:57:17;;;;;;;4.07;3.67;;;20.90;99.90;;;;;;5011698;28;20552;-74
2021/06/12 05:59:44;;;;;;;3.93;3.53;;;21.00;99.90;;;;;;4995269;28;20488;-74
2021/06/12 06:02:11;;;;;;;5.50;3.60;;;21.10;99.90;;;;;;5033173;28;20447;-73
2021/06/12 06:04:40;;;;;;;3.73;3.43;;;21.20;99.90;;;;;;5032210;28;20672;-74
2021/06/12 06:07:07;;;;;;;5.27;4.07;;;21.20;99.90;;;;;;5020639;28;20473;-73
2021/06/12 06:09:34;;;;;;;6.83;4.40;;;21.30;99.50;;;;;;5012523;28;20563;-73
2021/06/12 06:12:01;;;;;;;4.57;4.17;;;21.50;98.70;;;;;;5030743;28;20515;-74
2021/06/12 06:14:28;;;;;;;5.20;4.73;;;21.70;97.80;;;;;;5030712;28;20452;-74
2021/06/12 06:16:58;;;;;;;5.73;5.23;;;21.80;98.00;;;;;;5028211;28;20535;-74
2021/06/12 06:19:25;;;;;;;5.67;4.80;;;21.80;97.60;;;;;;5012315;28;20531;-73
2021/06/12 06:21:52;;;;;;;5.63;4.80;;;21.70;97.70;;;;;;5011402;28;20858;-73
2021/06/12 06:24:19;;;;;;;7.37;5.30;;;21.70;97.60;;;;;;5011502;28;20802;-73
2021/06/12 06:26:46;;;;;;;6.60;6.03;;;21.50;97.60;;;;;;5037983;28;20446;-74
2021/06/12 06:29:14;;;;;;;6.20;5.17;;;21.40;97.90;;;;;;5034658;28;20884;-73
2021/06/12 06:31:44;;;;;;;6.33;5.73;;;21.30;98.40;;;;;;5016066;28;20481;-73
2021/06/12 06:34:12;;;;;;;6.83;5.80;;;21.30;98.10;;;;;;5028006;28;20433;-74
2021/06/12 06:36:39;;;;;;;6.77;5.90;;;21.40;98.20;;;;;;5025815;28;20473;-73
2021/06/12 06:39:06;;;;;;;7.80;5.40;;;21.50;98.20;;;;;;5012245;28;20468;-74
2021/06/12 06:41:33;;;;;;;5.37;4.87;;;21.60;97.90;;;;;;5026907;28;20518;-73
2021/06/12 06:44:00;;;;;;;6.60;5.33;;;21.80;97.60;;;;;;5027854;28;20457;-73
2021/06/12 06:46:27;;;;;;;5.90;5.30;;;22.00;97.50;;;;;;5010982;28;20484;-74
2021/06/12 06:48:56;;;;;;;6.03;5.43;;;22.00;96.90;;;;;;5011961;28;20425;-73
2021/06/12 06:51:23;;;;;;;10.00;8.40;;;22.00;96.50;;;;;;5016354;28;20469;-74
2021/06/12 06:53:50;;;;;;;10.47;9.37;;;21.90;96.80;;;;;;5030660;28;20519;-73
2021/06/12 06:56:17;;;;;;;6.80;6.07;;;21.90;97.10;;;;;;5031482;28;20846;-73
2021/06/12 06:58:44;;;;;;;6.90;6.07;;;21.80;96.70;;;;;;5030233;28;20467;-74
2021/06/12 07:01:11;;;;;;;7.33;6.23;;;21.90;97.20;;;;;;5013955;28;20986;-73
2021/06/12 07:03:38;;;;;;;7.50;6.60;;;21.90;97.30;;;;;;5010955;28;20453;-72
2021/06/12 07:06:06;;;;;;;8.40;6.00;;;21.80;97.30;;;;;;5011534;28;20584;-73
2021/06/12 07:08:32;;;;;;;9.53;5.40;;;21.80;97.50;;;;;;5010544;28;20445;-74
2021/06/12 07:11:02;;;;;;;7.30;5.80;;;21.60;97.60;;;;;;5011228;28;20826;-74
2021/06/12 07:13:29;;;;;;;7.93;6.17;;;21.50;98.90;;;;;;5012263;28;20993;-73
2021/06/12 07:15:56;;;;;;;10.13;6.10;;;21.30;99.50;;;;;;5016407;28;20510;-74
2021/06/12 07:18:23;;;;;;;9.93;7.13;;;21.20;99.90;;;;;;5031482;28;20474;-74
2021/06/12 07:20:51;;;;;;;8.30;7.23;;;21.10;99.90;;;;;;5028213;28;21019;-73
2021/06/12 07:23:19;;;;;;;8.80;6.73;;;21.00;99.90;;;;;;4994665;28;20520;-73
2021/06/12 07:25:46;;;;;;;10.10;7.47;;;20.90;99.90;;;;;;5020515;28;20455;-75
2021/06/12 07:28:16;;;;;;;24.80;9.30;;;20.90;99.90;;;;;;5051455;28;20952;-73
2021/06/12 07:30:43;;;;;;;8.40;6.87;;;20.90;99.90;;;;;;5037185;28;20483;-74
2021/06/12 07:33:13;;;;;;;12.40;8.13;;;20.80;99.90;;;;;;4994757;28;20425;-73
2021/06/12 07:35:41;;;;;;;9.43;7.33;;;20.90;99.90;;;;;;5009555;28;21071;-73
2021/06/12 07:38:09;;;;;;;10.17;7.80;;;20.90;99.90;;;;;;5010198;28;20881;-74
2021/06/12 07:40:36;;;;;;;9.60;7.83;;;20.90;99.90;;;;;;5011529;28;20458;-74
2021/06/12 07:43:03;;;;;;;10.47;8.03;;;20.80;99.90;;;;;;5010272;28;20444;-74
2021/06/12 07:45:31;;;;;;;9.50;8.40;;;20.70;99.90;;;;;;5009762;28;20468;-74
2021/06/12 07:48:00;;;;;;;11.83;9.10;;;20.60;99.90;;;;;;5010143;28;20474;-74
2021/06/12 07:50:30;;;;;;;9.37;8.33;;;20.60;99.90;;;;;;5009902;28;20474;-74
2021/06/12 07:52:57;;;;;;;10.00;8.80;;;20.70;99.90;;;;;;5010004;28;20445;-74
2021/06/12 07:55:27;;;;;;;11.00;7.97;;;20.60;99.90;;;;;;5009463;28;20475;-74
2021/06/12 07:57:54;;;;;;;11.03;9.60;;;20.60;99.90;;;;;;5015046;28;20471;-73
2021/06/12 08:00:21;;;;;;;12.07;8.90;;;20.60;99.90;;;;;;5009367;28;20997;-73
2021/06/12 08:02:50;;;;;;;10.97;9.87;;;20.50;99.90;;;;;;5011764;28;20478;-73
2021/06/12 08:05:17;;;;;;;14.30;11.17;;;20.50;99.90;;;;;;5018940;28;20512;-74
2021/06/12 08:07:47;;;;;;;15.43;12.30;;;20.50;99.90;;;;;;5010598;28;20956;-72
2021/06/12 08:10:14;;;;;;;11.60;10.40;;;20.50;99.90;;;;;;5012236;28;20560;-71
2021/06/12 08:12:41;;;;;;;11.83;10.63;;;20.50;99.90;;;;;;5011514;28;20484;-72
2021/06/12 08:15:09;;;;;;;12.20;11.00;;;20.50;99.90;;;;;;5010607;28;20456;-72
2021/06/12 08:17:39;;;;;;;12.90;11.80;;;20.70;99.90;;;;;;5010303;28;20479;-72
2021/06/12 08:20:09;;;;;;;11.83;10.70;;;20.70;99.90;;;;;;5009515;28;20829;-72
2021/06/12 08:22:37;;;;;;;11.37;10.27;;;20.80;99.90;;;;;;5023841;28;20443;-72
2021/06/12 08:25:05;;;;;;;14.97;12.70;;;20.70;99.90;;;;;;5026322;28;20467;-71
2021/06/12 08:27:32;;;;;;;11.73;10.53;;;20.70;99.90;;;;;;5031888;28;20454;-72
2021/06/12 08:29:59;;;;;;;13.57;12.17;;;20.70;99.90;;;;;;5033256;28;20462;-73
2021/06/12 08:32:26;;;;;;;12.67;11.30;;;20.60;99.90;;;;;;5013656;28;20444;-72
2021/06/12 08:34:53;;;;;;;11.37;10.27;;;20.60;99.90;;;;;;5033021;28;20451;-72
2021/06/12 08:37:20;;;;;;;12.87;11.57;;;20.50;99.90;;;;;;5028150;28;20476;-72
2021/06/12 08:39:47;;;;;;;13.40;12.00;;;20.40;99.90;;;;;;5014320;28;20458;-72
2021/06/12 08:42:14;;;;;;;14.00;12.20;;;20.40;99.90;;;;;;5013266;28;20759;-72
2021/06/12 08:44:45;;;;;;;15.37;12.43;;;20.30;99.90;;;;;;5013353;28;20970;-73
2021/06/12 08:47:12;;;;;;;15.60;13.30;;;20.20;99.90;;;;;;4996550;28;20434;-73
2021/06/12 08:49:39;;;;;;;13.60;12.20;;;20.00;99.90;;;;;;5011931;28;20935;-73
2021/06/12 08:52:12;;;;;;;16.43;14.07;;;20.00;99.90;;;;;;5017498;28;20439;-72
2021/06/12 08:54:42;;;;;;;15.87;13.37;;;20.00;99.90;;;;;;5019752;28;20434;-72
2021/06/12 08:57:10;;;;;;;15.43;13.57;;;20.00;99.90;;;;;;5039252;28;20505;-73
2021/06/12 08:59:38;;;;;;;17.40;15.20;;;20.00;99.90;;;;;;5013742;28;20513;-72
2021/06/12 09:02:08;;;;;;;17.53;15.60;;;20.00;99.90;;;;;;4997005;28;20510;-72
2021/06/12 09:04:43;;;;;;;17.50;15.80;;;20.00;99.90;;;;;;5012611;28;20490;-72
2021/06/12 09:07:17;;;;;;;18.70;16.80;;;19.90;99.90;;;;;;5012912;28;20452;-72
2021/06/12 09:09:44;;;;;;;20.53;16.73;;;19.80;99.90;;;;;;5012427;28;20456;-72
2021/06/12 09:12:18;;;;;;;20.97;17.03;;;19.80;99.90;;;;;;5014356;28;20929;-73
2021/06/12 09:15:07;;;;;;;19.13;16.80;;;19.80;99.90;;;;;;5013412;28;20485;-73
2021/06/12 09:17:48;;;;;;;20.80;15.53;;;19.90;99.90;;;;;;5012481;28;20566;-73
2021/06/12 09:20:28;;;;;;;16.67;14.97;;;19.90;99.90;;;;;;5028656;28;20469;-73
2021/06/12 09:23:17;;;;;;;16.70;14.87;;;19.80;99.90;;;;;;5027086;28;20457;-73
2021/06/12 09:25:47;;;;;;;19.97;15.23;;;19.80;99.90;;;;;;5000331;28;20460;-72
2021/06/12 09:28:15;;;;;;;17.07;15.10;;;19.90;99.90;;;;;;5033663;28;20441;-72
2021/06/12 09:30:45;;;;;;;18.90;15.50;;;19.70;99.90;;;;;;5029824;28;20493;-72
2021/06/12 09:33:13;;;;;;;17.63;15.83;;;19.70;99.90;;;;;;5033853;28;20487;-73
2021/06/12 09:35:43;;;;;;;21.03;13.67;;;19.70;99.90;;;;;;5032336;28;20462;-73
2021/06/12 09:38:29;;;;;;;16.03;14.23;;;19.70;99.90;;;;;;5024286;28;20481;-72
2021/06/12 09:40:56;;;;;;;15.10;13.53;;;19.70;99.90;;;;;;5031743;28;20456;-73
2021/06/12 09:43:29;;;;;;;13.57;12.17;;;19.70;99.90;;;;;;5032046;28;20942;-73
2021/06/12 09:45:59;;;;;;;14.70;12.50;;;19.80;99.90;;;;;;5018333;28;20465;-73
2021/06/12 09:48:27;;;;;;;14.87;13.27;;;19.90;99.90;;;;;;5011997;28;20820;-72
2021/06/12 09:51:15;;;;;;;15.70;13.03;;;20.00;99.90;;;;;;5013670;28;20466;-72
2021/06/12 09:53:53;;;;;;;16.53;14.43;;;20.10;99.90;;;;;;5031650;28;20430;-72
2021/06/12 09:56:21;;;;;;;15.67;13.97;;;20.20;99.90;;;;;;5031504;28;20470;-73
2021/06/12 09:58:48;;;;;;;16.10;14.50;;;20.30;99.90;;;;;;5032736;28;20556;-72
2021/06/12 10:01:18;;;;;;;14.50;13.00;;;20.40;99.90;;;;;;5026837;28;20451;-72
2021/06/12 10:03:46;;;;;;;17.30;14.50;;;20.40;99.90;;;;;;5013276;28;21007;-73
2021/06/12 10:06:27;;;;;;;15.67;13.97;;;20.60;99.90;;;;;;5011207;28;20475;-73
2021/06/12 10:08:54;;;;;;;16.37;13.87;;;20.70;99.90;;;;;;5011624;28;20445;-72
2021/06/12 10:11:26;;;;;;;13.10;11.80;;;20.80;99.90;;;;;;4999758;28;20468;-73
2021/06/12 10:13:53;;;;;;;13.57;12.17;;;20.90;99.90;;;;;;5031412;28;20926;-73
2021/06/12 10:16:21;;;;;;;13.10;10.90;;;20.90;99.90;;;;;;5032308;28;20460;-71
2021/06/12 10:18:51;;;;;;;12.30;11.00;;;21.10;99.90;;;;;;5032407;28;20476;-72
2021/06/12 10:21:19;;;;;;;12.70;11.40;;;21.20;99.90;;;;;;5026634;28;20471;-72
2021/06/12 10:23:47;;;;;;;15.07;11.23;;;21.30;99.90;;;;;;5024324;28;20870;-72
2021/06/12 10:26:19;;;;;;;16.13;12.83;;;21.40;99.90;;;;;;5037727;28;20468;-72
2021/06/12 10:28:46;;;;;;;12.90;11.57;;;21.50;99.90;;;;;;5041471;28;20944;-72
2021/06/12 10:31:25;;;;;;;13.80;12.40;;;21.40;99.90;;;;;;5012342;28;20469;-72
2021/06/12 10:33:54;;;;;;;13.80;11.90;;;21.30;99.90;;;;;;5025395;28;20798;-72
2021/06/12 10:36:24;;;;;;;13.00;11.03;;;21.40;99.90;;;;;;5020158;28;20468;-72
2021/06/12 10:38:52;;;;;;;16.73;11.20;;;21.30;99.90;;;;;;5025812;28;20564;-73
2021/06/12 10:41:34;;;;;;;12.70;11.37;;;21.30;99.90;;;;;;5012261;28;20837;-73
2021/06/12 10:44:03;;;;;;;12.47;11.27;;;21.30;99.90;;;;;;5024186;28;20836;-72
2021/06/12 10:46:33;;;;;;;13.53;12.30;;;21.30;99.90;;;;;;5026068;28;20465;-72
2021/06/12 10:49:04;;;;;;;14.00;12.50;;;21.20;99.90;;;;;;5015378;28;20479;-72
2021/06/12 10:51:33;;;;;;;14.27;12.20;;;21.20;99.90;;;;;;5012287;28;20514;-73
2021/06/12 10:54:12;;;;;;;13.50;11.90;;;21.10;99.90;;;;;;5027434;28;20439;-72
2021/06/12 10:56:43;;;;;;;13.80;11.90;;;21.00;99.90;;;;;;5028365;28;20463;-72
2021/06/12 10:59:14;;;;;;;13.63;12.20;;;20.80;99.90;;;;;;5030853;28;20463;-72
2021/06/12 11:02:05;;;;;;;13.93;11.73;;;20.80;99.90;;;;;;5016044;28;20512;-72
2021/06/12 11:05:01;;;;;;;15.20;12.03;;;20.70;99.90;;;;;;5011556;28;20428;-73
2021/06/12 11:07:33;;;;;;;13.77;11.63;;;20.50;99.90;;;;;;5019837;28;20476;-72
2021/06/12 11:10:12;;;;;;;13.33;11.93;;;20.50;99.90;;;;;;5018981;28;20470;-72
2021/06/12 11:12:40;;;;;;;14.93;12.50;;;20.60;99.90;;;;;;5011642;28;20451;-72
2021/06/12 11:15:34;;;;;;;17.50;11.73;;;20.60;99.90;;;;;;5011450;28;20994;-71
2021/06/12 11:18:17;;;;;;;13.80;12.10;;;20.70;99.90;;;;;;5018779;28;20467;-73
2021/06/12 11:21:07;;;;;;;14.13;12.40;;;20.90;99.90;;;;;;5028880;28;20564;-72
2021/06/12 11:23:57;;;;;;;14.20;12.20;;;21.00;99.90;;;;;;5024467;28;20956;-72
2021/06/12 11:26:57;;;;;;;15.50;13.50;;;21.20;99.90;;;;;;5029595;28;20539;-71
2021/06/12 11:29:27;;;;;;;16.77;14.40;;;21.10;99.90;;;;;;5026084;28;20453;-72
2021/06/12 11:31:54;;;;;;;19.70;14.20;;;21.10;99.90;;;;;;5018308;28;20451;-72
2021/06/12 11:34:24;;;;;;;16.20;14.50;;;21.10;99.90;;;;;;5030534;28;20435;-72
2021/06/12 11:37:16;;;;;;;21.40;14.10;;;21.20;99.90;;;;;;5011387;28;20544;-72
2021/06/12 11:39:54;;;;;;;18.70;15.70;;;21.40;99.90;;;;;;5000463;28;20523;-72
2021/06/12 11:42:25;;;;;;;19.77;15.50;;;21.60;98.70;;;;;;5016396;28;20469;-72
2021/06/12 11:45:40;;;;;;;17.23;15.53;;;21.70;98.70;;;;;;5012796;28;20480;-73
2021/06/12 11:48:22;;;;;;;16.70;14.40;;;21.80;98.70;;;;;;4972586;28;20455;-72
2021/06/12 11:50:53;;;;;;;18.97;13.97;;;21.90;99.40;;;;;;5010853;28;20842;-73
2021/06/12 11:53:22;;;;;;;15.37;13.77;;;22.00;97.80;;;;;;5011859;28;20417;-73
2021/06/12 11:55:52;;;;;;;17.80;13.73;;;22.10;96.80;;;;;;5011121;28;20548;-73
2021/06/12 11:58:19;;;;;;;16.03;12.97;;;22.10;96.40;;;;;;5012398;28;20472;-74
2021/06/12 12:00:48;;;;;;;14.63;13.13;;;22.20;97.00;;;;;;5014799;28;21056;-75
2021/06/12 12:03:16;;;;;;;16.23;14.30;;;22.30;95.50;;;;;;5014617;28;20437;-74
2021/06/12 12:05:52;;;;;;;16.07;13.07;;;22.30;95.70;;;;;;5014862;28;20556;-74
2021/06/12 12:08:22;;;;;;;15.90;13.33;;;22.50;96.10;;;;;;5014044;28;20792;-74
2021/06/12 12:10:51;;;;;;;17.83;14.60;;;22.60;94.60;;;;;;5031323;28;20871;-74
2021/06/12 12:13:39;;;;;;;15.60;13.70;;;22.60;93.60;;;;;;5034074;28;20485;-73
2021/06/12 12:16:19;;;;;;;15.13;13.10;;;22.60;93.90;;;;;;5032192;28;20530;-73
2021/06/12 12:18:52;;;;;;;14.63;12.20;;;22.60;93.70;;;;;;5034716;28;20455;-74
2021/06/12 12:21:37;;;;;;;14.57;12.80;;;22.60;92.90;;;;;;5028775;28;20475;-74
2021/06/12 12:24:12;;;;;;;14.50;12.40;;;22.60;93.10;;;;;;5014050;28;20425;-74
2021/06/12 12:26:57;;;;;;;14.50;12.90;;;22.60;93.70;;;;;;5039036;28;20538;-74
2021/06/12 12:29:25;;;;;;;17.50;14.37;;;22.60;92.50;;;;;;5044428;28;20481;-74
2021/06/12 12:31:54;;;;;;;18.80;14.93;;;22.70;92.20;;;;;;5013691;28;20435;-74
2021/06/12 12:34:39;;;;;;;16.43;14.43;;;22.70;91.60;;;;;;5015144;28;20428;-74
2021/06/12 12:37:16;;;;;;;19.60;14.43;;;22.70;92.20;;;;;;5013720;28;20485;-74
2021/06/12 12:39:46;;;;;;;14.47;12.97;;;23.00;91.60;;;;;;5013085;28;20503;-73
2021/06/12 12:42:28;;;;;;;16.60;14.33;;;23.20;91.80;;;;;;5011789;28;20497;-74
2021/06/12 12:44:55;;;;;;;16.30;13.77;;;23.30;90.70;;;;;;5011821;28;20473;-73
2021/06/12 12:47:26;;;;;;;14.97;13.37;;;23.50;90.50;;;;;;5017842;28;20438;-74
2021/06/12 12:49:53;;;;;;;15.20;12.10;;;23.50;86.20;;;;;;5033592;28;20461;-73
2021/06/12 12:52:23;;;;;;;15.13;13.53;;;23.60;87.00;;;;;;5031691;28;20442;-73